Time,TemperatureF,DewpointF,PressureIn,WindDirection,WindDirectionDegrees,WindSpeedMPH,WindSpeedGustMPH,Humidity,HourlyPrecipIn,Conditions,Clouds,dailyrainin,SoftwareType,DateUTC
2013-03-08 00:02:00,25.0,-99.9,30.25,SSE,157,1.0,13.0,0,-99.99,,,0.00,,2013-03-08 05:02:00,
2013-03-08 01:32:00,25.0,-99.9,30.25,ESE,112,2.0,12.0,0,-99.99,,,0.00,,2013-03-08 06:32:00,
2013-03-08 01:42:00,25.0,-99.9,30.25,ESE,112,2.0,12.0,0,-99.99,,,0.00,,2013-03-08 06:42:00,
2013-03-08 01:52:00,25.0,-99.9,30.25,ESE,112,2.0,12.0,0,-99.99,,,0.00,,2013-03-08 06:52:00,
2013-03-08 02:01:00,25.0,-99.9,30.25,ESE,112,2.0,12.0,0,-99.99,,,0.00,,2013-03-08 07:01:00,
2013-03-08 02:32:00,23.0,-99.9,30.24,ESE,112,0.0,10.0,0,-99.99,,,0.00,,2013-03-08 07:32:00,
2013-03-08 02:42:00,23.0,-99.9,30.24,ESE,112,0.0,10.0,0,-99.99,,,0.00,,2013-03-08 07:42:00,
2013-03-08 02:52:00,23.0,-99.9,30.24,ESE,112,0.0,10.0,0,-99.99,,,0.00,,2013-03-08 07:52:00,
2013-03-08 03:02:00,23.0,-99.9,30.24,ESE,112,0.0,10.0,0,-99.99,,,0.00,,2013-03-08 08:02:00,
2013-03-08 03:03:00,20.0,-99.9,30.23,East,90,0.0,6.0,0,-99.99,,,0.00,,2013-03-08 08:03:00,
2013-03-08 03:42:00,20.0,-99.9,30.23,East,90,0.0,6.0,0,-99.99,,,0.00,,2013-03-08 08:42:00,
2013-03-08 03:52:00,20.0,-99.9,30.23,East,90,0.0,6.0,0,-99.99,,,0.00,,2013-03-08 08:52:00,
2013-03-08 04:42:00,19.0,-99.9,30.23,East,90,0.0,5.0,0,-99.99,,,0.00,,2013-03-08 09:42:00,
2013-03-08 04:52:00,19.0,-99.9,30.23,East,90,0.0,5.0,0,-99.99,,,0.00,,2013-03-08 09:52:00,
2013-03-08 05:01:00,19.0,-99.9,30.23,East,90,0.0,5.0,0,-99.99,,,0.00,,2013-03-08 10:01:00,
2013-03-08 05:42:00,18.0,-99.9,30.24,East,90,0.0,5.0,0,-99.99,,,0.00,,2013-03-08 10:42:00,
2013-03-08 05:52:00,18.0,-99.9,30.24,East,90,0.0,5.0,0,-99.99,,,0.00,,2013-03-08 10:52:00,
2013-03-08 06:01:00,18.0,-99.9,30.24,East,90,0.0,5.0,0,-99.99,,,0.00,,2013-03-08 11:01:00,
2013-03-08 06:42:00,17.0,-99.9,30.25,East,90,0.0,0.0,0,-99.99,,,0.00,,2013-03-08 11:42:00,
2013-03-08 06:52:00,17.0,-99.9,30.25,East,90,0.0,0.0,0,-99.99,,,0.00,,2013-03-08 11:52:00,
2013-03-08 07:02:00,17.0,-99.9,30.25,East,90,0.0,0.0,0,-99.99,,,0.00,,2013-03-08 12:02:00,
2013-03-08 07:43:00,19.0,-99.9,30.26,East,90,0.0,3.0,0,-99.99,,,0.00,,2013-03-08 12:43:00,
2013-03-08 07:53:00,19.0,-99.9,30.26,East,90,0.0,3.0,0,-99.99,,,0.00,,2013-03-08 12:53:00,
2013-03-08 08:02:00,19.0,-99.9,30.26,East,90,0.0,3.0,0,-99.99,,,0.00,,2013-03-08 13:02:00,
2013-03-08 08:03:00,24.0,-99.9,30.27,ENE,67,3.0,8.0,0,-99.99,,,-99.99,,2013-03-08 13:03:00,
2013-03-08 08:42:00,24.0,-99.9,30.27,ENE,67,3.0,8.0,0,-99.99,,,-99.99,,2013-03-08 13:42:00,
2013-03-08 08:52:00,24.0,-99.9,30.27,ENE,67,3.0,8.0,0,-99.99,,,-99.99,,2013-03-08 13:52:00,
2013-03-08 09:03:00,29.0,-99.9,30.27,NNE,22,5.0,8.0,0,-99.99,,,0.00,,2013-03-08 14:03:00,
2013-03-08 09:42:00,29.0,-99.9,30.27,NNE,22,5.0,8.0,0,-99.99,,,0.00,,2013-03-08 14:42:00,
2013-03-08 09:53:00,29.0,-99.9,30.27,NNE,22,5.0,8.0,0,-99.99,,,0.00,,2013-03-08 14:53:00,
2013-03-08 10:43:00,32.0,-99.9,30.27,NNW,337,3.0,10.0,0,-99.99,,,-99.99,,2013-03-08 15:43:00,
2013-03-08 10:53:00,32.0,-99.9,30.27,NNW,337,3.0,10.0,0,-99.99,,,-99.99,,2013-03-08 15:53:00,
2013-03-08 11:02:00,32.0,-99.9,30.27,NNW,337,3.0,10.0,0,-99.99,,,-99.99,,2013-03-08 16:02:00,
2013-03-08 11:03:00,36.0,-99.9,30.26,North,360,4.0,11.0,0,-99.99,,,0.00,,2013-03-08 16:03:00,
2013-03-08 11:42:00,36.0,-99.9,30.26,North,360,4.0,11.0,0,-99.99,,,0.00,,2013-03-08 16:42:00,
2013-03-08 11:52:00,36.0,-99.9,30.26,North,360,4.0,11.0,0,-99.99,,,0.00,,2013-03-08 16:52:00,
2013-03-08 12:42:00,40.0,-99.9,30.25,East,90,9.0,11.0,0,-99.99,,,0.00,,2013-03-08 17:42:00,
2013-03-08 12:52:00,40.0,-99.9,30.25,East,90,9.0,11.0,0,-99.99,,,0.00,,2013-03-08 17:52:00,
2013-03-08 13:02:00,40.0,-99.9,30.25,East,90,9.0,11.0,0,-99.99,,,0.00,,2013-03-08 18:02:00,
2013-03-08 13:42:00,44.0,-99.9,30.22,North,360,5.0,12.0,0,-99.99,,,0.00,,2013-03-08 18:42:00,
2013-03-08 13:52:00,44.0,-99.9,30.22,North,360,5.0,12.0,0,-99.99,,,0.00,,2013-03-08 18:52:00,
2013-03-08 14:02:00,44.0,-99.9,30.22,North,360,5.0,12.0,0,-99.99,,,0.00,,2013-03-08 19:02:00,
2013-03-08 14:42:00,46.0,-99.9,30.22,NE,45,8.0,12.0,0,-99.99,,,0.00,,2013-03-08 19:42:00,
2013-03-08 14:52:00,46.0,-99.9,30.22,NE,45,8.0,12.0,0,-99.99,,,0.00,,2013-03-08 19:52:00,
2013-03-08 15:02:00,46.0,-99.9,30.22,NE,45,8.0,12.0,0,-99.99,,,0.00,,2013-03-08 20:02:00,
2013-03-08 15:42:00,45.0,-99.9,30.21,NE,45,3.0,13.0,0,-99.99,,,0.00,,2013-03-08 20:42:00,
2013-03-08 15:53:00,45.0,-99.9,30.21,NE,45,3.0,13.0,0,-99.99,,,0.00,,2013-03-08 20:53:00,
2013-03-08 16:02:00,45.0,-99.9,30.21,NE,45,3.0,13.0,0,-99.99,,,0.00,,2013-03-08 21:02:00,
2013-03-08 16:33:00,43.0,-99.9,30.22,East,90,4.0,12.0,0,-99.99,,,0.00,,2013-03-08 21:33:00,
2013-03-08 16:42:00,43.0,-99.9,30.22,East,90,4.0,12.0,0,-99.99,,,0.00,,2013-03-08 21:42:00,
2013-03-08 16:52:00,43.0,-99.9,30.22,East,90,4.0,12.0,0,-99.99,,,0.00,,2013-03-08 21:52:00,
2013-03-08 17:02:00,43.0,-99.9,30.22,East,90,4.0,12.0,0,-99.99,,,0.00,,2013-03-08 22:02:00,
2013-03-08 17:42:00,38.0,-99.9,30.25,SSW,202,0.0,10.0,0,-99.99,,,0.00,,2013-03-08 22:42:00,
2013-03-08 17:53:00,38.0,-99.9,30.25,SSW,202,0.0,10.0,0,-99.99,,,0.00,,2013-03-08 22:53:00,
2013-03-08 18:02:00,38.0,-99.9,30.25,SSW,202,0.0,10.0,0,-99.99,,,0.00,,2013-03-08 23:02:00,
2013-03-08 18:42:00,31.0,-99.9,30.26,East,90,0.0,8.0,0,-99.99,,,0.00,,2013-03-08 23:42:00,
2013-03-08 18:53:00,31.0,-99.9,30.26,East,90,0.0,8.0,0,-99.99,,,0.00,,2013-03-08 23:53:00,
2013-03-08 19:02:00,31.0,-99.9,30.26,East,90,0.0,8.0,0,-99.99,,,0.00,,2013-03-09 00:02:00,
2013-03-08 19:42:00,28.0,-99.9,30.27,ESE,112,0.0,7.0,0,-99.99,,,0.00,,2013-03-09 00:42:00,
2013-03-08 19:52:00,28.0,-99.9,30.27,ESE,112,0.0,7.0,0,-99.99,,,0.00,,2013-03-09 00:52:00,
2013-03-08 20:02:00,28.0,-99.9,30.27,ESE,112,0.0,7.0,0,-99.99,,,0.00,,2013-03-09 01:02:00,
2013-03-08 22:42:00,23.0,-99.9,30.28,SSW,202,1.0,3.0,0,-99.99,,,0.00,,2013-03-09 03:42:00,
2013-03-08 22:52:00,23.0,-99.9,30.28,SSW,202,1.0,3.0,0,-99.99,,,0.00,,2013-03-09 03:52:00,
2013-03-08 23:01:00,23.0,-99.9,30.28,SSW,202,1.0,3.0,0,-99.99,,,0.00,,2013-03-09 04:01:00,
2013-03-08 23:03:00,22.0,-99.9,30.27,SW,225,0.0,5.0,0,-99.99,,,0.00,,2013-03-09 04:03:00,
2013-03-08 23:42:00,22.0,-99.9,30.27,SW,225,0.0,5.0,0,-99.99,,,0.00,,2013-03-09 04:42:00,
2013-03-08 23:52:00,22.0,-99.9,30.27,SW,225,0.0,5.0,0,-99.99,,,0.00,,2013-03-09 04:52:00,